createdAt,value
2022-10-05T03:11:04.322Z,6.73
2022-10-05T03:14:21.090Z,6.68
2022-10-05T03:17:27.360Z,6.75
2022-10-05T03:20:52.477Z,6.65
2022-10-05T03:24:25.744Z,6.66
2022-10-05T03:27:37.235Z,6.63
2022-10-05T03:31:02.992Z,6.58
2022-10-05T03:34:24.919Z,6.73
2022-10-05T03:37:46.059Z,6.79
2022-10-05T03:41:03.597Z,6.84
2022-10-05T03:44:43.941Z,6.87
2022-10-05T03:48:15.530Z,6.90
2022-10-05T03:51:34.691Z,7.04
2022-10-05T03:54:46.831Z,6.98
2022-10-05T03:57:52.383Z,6.94
2022-10-05T04:01:02.426Z,6.96
2022-10-05T04:04:11.095Z,7.01
2022-10-05T04:07:43.551Z,7.03
2022-10-05T04:10:52.239Z,7.04
2022-10-05T04:14:14.297Z,7.07
2022-10-05T04:17:21.780Z,7.00
2022-10-05T04:20:44.348Z,6.98
2022-10-05T04:23:55.561Z,7.09
2022-10-05T04:27:03.167Z,7.10
2022-10-05T04:30:12.465Z,7.06
2022-10-05T04:33:16.152Z,7.07
2022-10-05T04:36:27.641Z,7.12
2022-10-05T04:39:36.514Z,7.22
2022-10-05T04:43:16.084Z,7.16
2022-10-05T04:46:41.895Z,7.14
2022-10-05T04:49:56.811Z,7.12
2022-10-05T04:53:17.048Z,7.06
2022-10-05T04:56:29.855Z,7.03
2022-10-05T04:59:48.187Z,7.04
2022-10-05T05:03:07.625Z,6.95
2022-10-05T05:06:26.122Z,6.88
2022-10-05T05:10:14.547Z,7.01
2022-10-05T05:13:35.296Z,7.02
2022-10-05T05:16:41.587Z,7.06
2022-10-05T05:19:58.248Z,6.92
2022-10-05T05:23:28.743Z,6.93
2022-10-05T05:27:05.066Z,6.91
2022-10-05T05:30:35.697Z,7.09
2022-10-05T05:34:11.714Z,7.36
2022-10-05T05:37:36.450Z,7.65
2022-10-05T05:40:57.756Z,7.64
2022-10-05T05:44:24.299Z,7.80
2022-10-05T05:47:37.692Z,8.46
2022-10-05T05:50:59.583Z,9.01
2022-10-05T05:54:36.381Z,9.20
2022-10-05T05:57:43.460Z,9.35
2022-10-05T06:00:52.653Z,9.64
2022-10-05T06:04:27.838Z,9.97
2022-10-05T06:07:31.828Z,10.27
2022-10-05T06:10:48.271Z,10.53
2022-10-05T06:13:51.837Z,10.90
2022-10-05T06:17:09.845Z,11.16
2022-10-05T06:20:43.402Z,11.46
2022-10-05T06:24:05.020Z,11.43
2022-10-05T06:27:57.756Z,11.47
2022-10-05T06:31:26.475Z,11.50
2022-10-05T06:35:01.678Z,11.59
2022-10-05T06:38:27.038Z,11.91
2022-10-05T06:42:05.545Z,11.79
2022-10-05T06:45:41.863Z,11.62
2022-10-05T06:48:47.461Z,11.82
2022-10-05T06:51:58.428Z,11.78
2022-10-05T06:55:30.270Z,11.57
2022-10-05T06:58:47.898Z,11.53
2022-10-05T07:01:56.101Z,11.73
2022-10-05T07:05:04.990Z,12.25
2022-10-05T07:08:13.450Z,12.51
2022-10-05T07:11:18.781Z,12.22
2022-10-05T07:14:44.756Z,12.71
2022-10-05T07:18:20.076Z,13.02
2022-10-05T07:21:41.893Z,12.88
2022-10-05T07:25:10.390Z,12.50
2022-10-05T07:28:37.463Z,12.52
2022-10-05T07:31:54.985Z,12.82
2022-10-05T07:35:08.183Z,12.75
2022-10-05T07:38:19.633Z,13.04
2022-10-05T07:41:28.093Z,13.18
2022-10-05T07:44:36.384Z,13.17
2022-10-05T07:47:54.003Z,12.91
2022-10-05T07:51:01.997Z,12.89
2022-10-05T07:54:15.767Z,12.94
2022-10-05T07:57:24.835Z,13.04
2022-10-05T08:00:47.233Z,12.94
2022-10-05T08:04:10.893Z,13.28
2022-10-05T08:07:17.245Z,13.50
2022-10-05T08:10:39.311Z,13.49
2022-10-05T08:13:54.774Z,13.60
2022-10-05T08:17:02.231Z,13.65
2022-10-05T08:20:21.582Z,13.68
2022-10-05T08:23:50.741Z,13.78
2022-10-05T08:27:25.487Z,14.14
2022-10-05T08:30:31.749Z,14.32
2022-10-05T08:33:54.520Z,14.29
2022-10-05T08:37:14.124Z,14.47
2022-10-05T08:40:18.929Z,14.78
2022-10-05T08:44:02.664Z,15.15
2022-10-05T08:47:34.979Z,15.42
2022-10-05T08:51:08.442Z,15.77
2022-10-05T08:54:32.479Z,15.49
2022-10-05T08:57:53.429Z,15.27
2022-10-05T09:01:09.969Z,14.95
2022-10-05T09:04:31.622Z,14.83
2022-10-05T09:08:11.591Z,14.81
2022-10-05T09:11:36.263Z,14.94
2022-10-05T09:15:13.691Z,15.50
2022-10-05T09:18:56.509Z,15.93
2022-10-05T09:22:06.390Z,16.20
2022-10-05T09:25:21.083Z,16.22
2022-10-05T09:28:40.194Z,16.49
2022-10-05T09:32:02.292Z,16.63
2022-10-05T09:35:04.342Z,16.66
2022-10-05T09:38:27.657Z,16.83
2022-10-05T09:41:58.530Z,17.12
2022-10-05T09:45:43.647Z,17.40
2022-10-05T09:49:11.498Z,17.82
2022-10-05T09:52:38.430Z,17.98
2022-10-05T09:56:14.596Z,18.00
2022-10-05T09:59:29.300Z,17.90
2022-10-05T10:02:46.898Z,17.93
2022-10-05T10:06:10.474Z,17.55
2022-10-05T10:09:41.718Z,17.30
2022-10-05T10:13:17.698Z,17.33
2022-10-05T10:16:57.587Z,17.82
2022-10-05T10:20:14.673Z,18.27
2022-10-05T10:23:35.807Z,18.71
2022-10-05T10:26:50.258Z,18.97
2022-10-05T10:30:16.526Z,19.30
2022-10-05T10:33:40.667Z,19.48
2022-10-05T10:37:11.674Z,19.90
2022-10-05T10:40:13.887Z,19.84
2022-10-05T10:43:22.201Z,19.87
2022-10-05T10:46:45.147Z,19.68
2022-10-05T10:50:05.559Z,19.48
2022-10-05T10:53:10.227Z,19.85
2022-10-05T10:56:27.849Z,20.51
2022-10-05T10:59:53.955Z,23.00
2022-10-05T11:03:32.162Z,24.65
2022-10-05T11:07:05.509Z,22.82
2022-10-05T11:10:16.691Z,22.86
2022-10-05T11:13:48.221Z,26.38
2022-10-05T11:17:21.425Z,26.05
2022-10-05T11:20:32.539Z,28.66
2022-10-05T11:24:05.673Z,30.65
2022-10-05T11:27:26.556Z,32.82
2022-10-05T11:30:50.315Z,31.97
2022-10-05T11:34:18.347Z,29.67
2022-10-05T11:37:58.110Z,29.66
2022-10-05T11:41:16.622Z,27.14
2022-10-05T11:44:57.577Z,23.45
2022-10-05T11:48:07.206Z,21.98
2022-10-05T11:51:30.435Z,21.68
2022-10-05T11:55:06.005Z,21.55
2022-10-05T11:58:29.981Z,21.04
2022-10-05T12:01:52.388Z,20.58
2022-10-05T12:05:11.177Z,20.85
2022-10-05T12:08:25.641Z,20.49
2022-10-05T12:11:49.517Z,20.69
2022-10-05T12:15:03.191Z,20.40
2022-10-05T12:18:17.159Z,20.30
2022-10-05T12:21:47.119Z,20.04
2022-10-05T12:25:02.969Z,19.85
2022-10-05T12:28:12.110Z,19.87
2022-10-05T12:31:39.004Z,19.81
2022-10-05T12:34:56.579Z,19.77
2022-10-05T12:38:26.982Z,19.89
2022-10-05T12:41:53.997Z,19.88
2022-10-05T12:45:03.838Z,19.60
2022-10-05T12:48:18.720Z,19.75
2022-10-05T12:51:36.125Z,19.40
2022-10-05T12:54:57.973Z,19.37
2022-10-05T12:58:15.894Z,19.33
2022-10-05T13:01:43.464Z,19.11
2022-10-05T13:05:01.822Z,19.15
2022-10-05T13:08:31.184Z,19.20
2022-10-05T13:11:44.191Z,19.17
2022-10-05T13:14:59.766Z,19.07
2022-10-05T13:18:12.028Z,18.88
2022-10-05T13:21:26.755Z,18.80
2022-10-05T13:24:36.360Z,18.67
2022-10-05T13:27:45.228Z,18.59
2022-10-05T13:31:03.968Z,18.77
2022-10-05T13:34:15.006Z,18.89
2022-10-05T13:37:45.188Z,18.84
2022-10-05T13:41:24.715Z,18.67
2022-10-05T13:44:52.992Z,18.71
2022-10-05T13:48:24.332Z,18.83
2022-10-05T13:51:46.456Z,18.61
2022-10-05T13:55:06.735Z,18.57
2022-10-05T13:58:20.688Z,18.63
2022-10-05T14:01:41.424Z,18.62
2022-10-05T14:04:58.316Z,18.36
2022-10-05T14:08:03.149Z,18.46
2022-10-05T14:11:36.019Z,18.47
2022-10-05T14:14:45.136Z,18.46
2022-10-05T14:17:47.483Z,18.29
2022-10-05T14:21:02.463Z,18.28
2022-10-05T14:24:49.449Z,18.39
2022-10-05T14:28:23.944Z,18.38
2022-10-05T14:31:34.179Z,18.39
2022-10-05T14:34:42.705Z,18.26
2022-10-05T14:37:56.079Z,18.18
2022-10-05T14:41:20.444Z,18.19
2022-10-05T14:48:10.314Z,18.14
2022-10-05T14:51:31.762Z,18.07
2022-10-05T14:54:41.216Z,17.96
2022-10-05T14:58:18.621Z,17.95
2022-10-05T15:01:26.722Z,17.96
2022-10-05T15:04:41.681Z,17.89
2022-10-05T15:07:48.653Z,17.65
2022-10-05T15:11:09.142Z,17.74
2022-10-05T15:14:19.247Z,17.62
2022-10-05T15:17:30.885Z,17.47
